sensor_id;sensor_type;location;lat;lon;timestamp;P1;durP1;ratioP1;P2;durP2;ratioP2
55784;SDS011;41709;52.536;5.688;2023-06-01T00:01:51;13.55;;;4.22;;
55784;SDS011;41709;52.536;5.688;2023-06-01T00:04:16;10.18;;;4.15;;
55784;SDS011;41709;52.536;5.688;2023-06-01T00:06:42;12.77;;;5.22;;
55784;SDS011;41709;52.536;5.688;2023-06-01T00:09:08;13.07;;;5.13;;
55784;SDS011;41709;52.536;5.688;2023-06-01T00:11:34;7.90;;;4.28;;
55784;SDS011;41709;52.536;5.688;2023-06-01T00:14:00;7.50;;;4.00;;
55784;SDS011;41709;52.536;5.688;2023-06-01T00:16:25;11.75;;;5.57;;
55784;SDS011;41709;52.536;5.688;2023-06-01T00:18:51;9.05;;;4.40;;
55784;SDS011;41709;52.536;5.688;2023-06-01T00:21:18;13.40;;;4.90;;
55784;SDS011;41709;52.536;5.688;2023-06-01T00:23:44;14.40;;;4.55;;
55784;SDS011;41709;52.536;5.688;2023-06-01T00:26:11;11.30;;;5.00;;
55784;SDS011;41709;52.536;5.688;2023-06-01T00:28:36;11.98;;;5.45;;
55784;SDS011;41709;52.536;5.688;2023-06-01T00:31:02;9.60;;;5.50;;
55784;SDS011;41709;52.536;5.688;2023-06-01T00:33:27;8.20;;;4.75;;
55784;SDS011;41709;52.536;5.688;2023-06-01T00:35:53;9.55;;;4.80;;
55784;SDS011;41709;52.536;5.688;2023-06-01T00:38:18;16.55;;;6.97;;
55784;SDS011;41709;52.536;5.688;2023-06-01T00:40:44;11.80;;;5.60;;
55784;SDS011;41709;52.536;5.688;2023-06-01T00:43:10;13.45;;;5.53;;
55784;SDS011;41709;52.536;5.688;2023-06-01T00:45:36;15.77;;;6.72;;
55784;SDS011;41709;52.536;5.688;2023-06-01T00:48:04;10.27;;;5.40;;
55784;SDS011;41709;52.536;5.688;2023-06-01T00:50:30;10.05;;;5.65;;
55784;SDS011;41709;52.536;5.688;2023-06-01T00:52:56;10.82;;;5.15;;
55784;SDS011;41709;52.536;5.688;2023-06-01T00:55:23;11.63;;;5.30;;
55784;SDS011;41709;52.536;5.688;2023-06-01T00:57:49;12.77;;;5.32;;
55784;SDS011;41709;52.536;5.688;2023-06-01T01:00:17;11.43;;;5.30;;
55784;SDS011;41709;52.536;5.688;2023-06-01T01:02:43;13.75;;;5.05;;
55784;SDS011;41709;52.536;5.688;2023-06-01T01:05:16;9.63;;;5.28;;
55784;SDS011;41709;52.536;5.688;2023-06-01T01:10:22;12.68;;;5.70;;
55784;SDS011;41709;52.536;5.688;2023-06-01T01:12:58;10.50;;;5.30;;
55784;SDS011;41709;52.536;5.688;2023-06-01T01:18:51;13.80;;;5.47;;
55784;SDS011;41709;52.536;5.688;2023-06-01T01:21:23;11.85;;;5.35;;
55784;SDS011;41709;52.536;5.688;2023-06-01T01:26:51;14.07;;;6.65;;
55784;SDS011;41709;52.536;5.688;2023-06-01T01:29:18;10.85;;;5.47;;
55784;SDS011;41709;52.536;5.688;2023-06-01T01:31:46;13.13;;;6.18;;
55784;SDS011;41709;52.536;5.688;2023-06-01T01:34:15;18.63;;;6.50;;
55784;SDS011;41709;52.536;5.688;2023-06-01T01:36:42;11.27;;;5.20;;
55784;SDS011;41709;52.536;5.688;2023-06-01T01:39:08;12.13;;;5.90;;
55784;SDS011;41709;52.536;5.688;2023-06-01T01:41:34;10.20;;;5.38;;
55784;SDS011;41709;52.536;5.688;2023-06-01T01:44:00;17.73;;;5.93;;
55784;SDS011;41709;52.536;5.688;2023-06-01T01:46:29;19.00;;;7.30;;
55784;SDS011;41709;52.536;5.688;2023-06-01T01:49:12;12.27;;;5.78;;
55784;SDS011;41709;52.536;5.688;2023-06-01T01:51:50;10.40;;;5.78;;
55784;SDS011;41709;52.536;5.688;2023-06-01T01:54:21;10.68;;;5.70;;
55784;SDS011;41709;52.536;5.688;2023-06-01T01:56:48;9.52;;;5.50;;
55784;SDS011;41709;52.536;5.688;2023-06-01T01:59:15;11.60;;;5.88;;
55784;SDS011;41709;52.536;5.688;2023-06-01T02:01:41;12.30;;;5.65;;
55784;SDS011;41709;52.536;5.688;2023-06-01T02:04:09;10.45;;;5.18;;
55784;SDS011;41709;52.536;5.688;2023-06-01T02:06:35;10.32;;;5.15;;
55784;SDS011;41709;52.536;5.688;2023-06-01T02:09:02;13.88;;;5.32;;
55784;SDS011;41709;52.536;5.688;2023-06-01T02:11:32;10.52;;;4.53;;
55784;SDS011;41709;52.536;5.688;2023-06-01T02:13:58;14.32;;;4.45;;
55784;SDS011;41709;52.536;5.688;2023-06-01T02:16:23;12.77;;;5.60;;
55784;SDS011;41709;52.536;5.688;2023-06-01T02:18:49;10.20;;;4.60;;
55784;SDS011;41709;52.536;5.688;2023-06-01T02:21:15;14.38;;;4.70;;
55784;SDS011;41709;52.536;5.688;2023-06-01T02:23:41;10.68;;;4.80;;
55784;SDS011;41709;52.536;5.688;2023-06-01T02:26:07;12.30;;;4.38;;
55784;SDS011;41709;52.536;5.688;2023-06-01T02:28:33;12.80;;;4.38;;
55784;SDS011;41709;52.536;5.688;2023-06-01T02:31:01;12.75;;;5.00;;
55784;SDS011;41709;52.536;5.688;2023-06-01T02:33:26;14.63;;;5.57;;
55784;SDS011;41709;52.536;5.688;2023-06-01T02:35:52;14.45;;;5.13;;
55784;SDS011;41709;52.536;5.688;2023-06-01T02:38:18;9.90;;;4.20;;
55784;SDS011;41709;52.536;5.688;2023-06-01T02:40:43;11.15;;;4.63;;
55784;SDS011;41709;52.536;5.688;2023-06-01T02:43:09;14.90;;;4.30;;
55784;SDS011;41709;52.536;5.688;2023-06-01T02:45:34;10.57;;;5.20;;
55784;SDS011;41709;52.536;5.688;2023-06-01T02:48:00;12.38;;;4.32;;
55784;SDS011;41709;52.536;5.688;2023-06-01T02:50:25;13.98;;;5.38;;
55784;SDS011;41709;52.536;5.688;2023-06-01T02:52:51;9.15;;;4.80;;
55784;SDS011;41709;52.536;5.688;2023-06-01T02:55:17;14.05;;;5.38;;
55784;SDS011;41709;52.536;5.688;2023-06-01T02:57:42;13.13;;;5.28;;
55784;SDS011;41709;52.536;5.688;2023-06-01T03:00:08;15.32;;;5.22;;
55784;SDS011;41709;52.536;5.688;2023-06-01T03:02:41;13.07;;;5.07;;
55784;SDS011;41709;52.536;5.688;2023-06-01T03:05:07;12.85;;;5.50;;
55784;SDS011;41709;52.536;5.688;2023-06-01T03:07:34;12.52;;;5.50;;
55784;SDS011;41709;52.536;5.688;2023-06-01T03:09:59;17.08;;;5.40;;
55784;SDS011;41709;52.536;5.688;2023-06-01T03:12:25;15.45;;;5.80;;
55784;SDS011;41709;52.536;5.688;2023-06-01T03:14:50;12.48;;;6.45;;
55784;SDS011;41709;52.536;5.688;2023-06-01T03:17:16;13.07;;;5.85;;
55784;SDS011;41709;52.536;5.688;2023-06-01T03:19:41;15.80;;;5.90;;
55784;SDS011;41709;52.536;5.688;2023-06-01T03:22:07;12.77;;;6.38;;
55784;SDS011;41709;52.536;5.688;2023-06-01T03:24:33;15.18;;;5.82;;
55784;SDS011;41709;52.536;5.688;2023-06-01T03:26:59;12.88;;;5.88;;
55784;SDS011;41709;52.536;5.688;2023-06-01T03:29:26;11.90;;;6.05;;
55784;SDS011;41709;52.536;5.688;2023-06-01T03:31:51;15.27;;;5.78;;
55784;SDS011;41709;52.536;5.688;2023-06-01T03:34:17;11.50;;;5.63;;
55784;SDS011;41709;52.536;5.688;2023-06-01T03:36:42;15.52;;;6.40;;
55784;SDS011;41709;52.536;5.688;2023-06-01T03:39:12;10.13;;;5.25;;
55784;SDS011;41709;52.536;5.688;2023-06-01T03:41:40;14.70;;;5.38;;
55784;SDS011;41709;52.536;5.688;2023-06-01T03:44:07;13.68;;;5.78;;
55784;SDS011;41709;52.536;5.688;2023-06-01T03:46:33;11.00;;;5.15;;
55784;SDS011;41709;52.536;5.688;2023-06-01T03:48:58;12.32;;;5.65;;
55784;SDS011;41709;52.536;5.688;2023-06-01T03:51:24;8.52;;;5.03;;
55784;SDS011;41709;52.536;5.688;2023-06-01T03:53:50;9.25;;;4.82;;
55784;SDS011;41709;52.536;5.688;2023-06-01T03:56:15;9.52;;;5.00;;
55784;SDS011;41709;52.536;5.688;2023-06-01T03:58:41;14.20;;;6.13;;
55784;SDS011;41709;52.536;5.688;2023-06-01T04:01:07;9.18;;;4.80;;
55784;SDS011;41709;52.536;5.688;2023-06-01T04:03:33;11.23;;;5.55;;
55784;SDS011;41709;52.536;5.688;2023-06-01T04:05:59;10.25;;;5.47;;
55784;SDS011;41709;52.536;5.688;2023-06-01T04:08:26;12.63;;;4.72;;
55784;SDS011;41709;52.536;5.688;2023-06-01T04:10:52;14.85;;;5.13;;
55784;SDS011;41709;52.536;5.688;2023-06-01T04:13:18;11.45;;;5.60;;
55784;SDS011;41709;52.536;5.688;2023-06-01T04:15:44;13.13;;;5.05;;
55784;SDS011;41709;52.536;5.688;2023-06-01T04:18:11;15.57;;;6.22;;
55784;SDS011;41709;52.536;5.688;2023-06-01T04:20:37;11.45;;;5.18;;
55784;SDS011;41709;52.536;5.688;2023-06-01T04:23:02;16.65;;;5.85;;
55784;SDS011;41709;52.536;5.688;2023-06-01T04:25:28;12.40;;;5.10;;
55784;SDS011;41709;52.536;5.688;2023-06-01T04:27:54;12.23;;;6.05;;
55784;SDS011;41709;52.536;5.688;2023-06-01T04:30:20;9.02;;;5.57;;
55784;SDS011;41709;52.536;5.688;2023-06-01T04:32:47;13.13;;;5.90;;
55784;SDS011;41709;52.536;5.688;2023-06-01T04:35:13;14.55;;;6.25;;
55784;SDS011;41709;52.536;5.688;2023-06-01T04:37:39;14.85;;;5.50;;
55784;SDS011;41709;52.536;5.688;2023-06-01T04:40:07;14.68;;;5.90;;
55784;SDS011;41709;52.536;5.688;2023-06-01T04:42:34;13.05;;;5.78;;
55784;SDS011;41709;52.536;5.688;2023-06-01T04:45:01;10.82;;;5.45;;
55784;SDS011;41709;52.536;5.688;2023-06-01T04:47:32;13.00;;;7.40;;
55784;SDS011;41709;52.536;5.688;2023-06-01T04:50:01;10.85;;;5.10;;
55784;SDS011;41709;52.536;5.688;2023-06-01T04:52:28;12.93;;;5.50;;
55784;SDS011;41709;52.536;5.688;2023-06-01T04:54:53;9.93;;;5.72;;
55784;SDS011;41709;52.536;5.688;2023-06-01T04:57:19;9.30;;;5.03;;
55784;SDS011;41709;52.536;5.688;2023-06-01T04:59:45;16.60;;;6.32;;
55784;SDS011;41709;52.536;5.688;2023-06-01T05:02:10;16.63;;;7.35;;
55784;SDS011;41709;52.536;5.688;2023-06-01T05:04:37;12.77;;;5.47;;
55784;SDS011;41709;52.536;5.688;2023-06-01T05:07:02;11.48;;;5.47;;
55784;SDS011;41709;52.536;5.688;2023-06-01T05:09:28;9.18;;;5.50;;
55784;SDS011;41709;52.536;5.688;2023-06-01T05:11:53;12.75;;;6.00;;
55784;SDS011;41709;52.536;5.688;2023-06-01T05:14:19;9.88;;;4.97;;
55784;SDS011;41709;52.536;5.688;2023-06-01T05:16:44;16.55;;;5.65;;
55784;SDS011;41709;52.536;5.688;2023-06-01T05:19:10;13.05;;;5.80;;
55784;SDS011;41709;52.536;5.688;2023-06-01T05:21:36;12.43;;;5.78;;
55784;SDS011;41709;52.536;5.688;2023-06-01T05:24:01;11.93;;;5.53;;
55784;SDS011;41709;52.536;5.688;2023-06-01T05:26:27;17.42;;;5.90;;
55784;SDS011;41709;52.536;5.688;2023-06-01T05:28:52;14.93;;;5.78;;
55784;SDS011;41709;52.536;5.688;2023-06-01T05:31:18;10.65;;;5.38;;
55784;SDS011;41709;52.536;5.688;2023-06-01T05:33:44;12.65;;;5.22;;
55784;SDS011;41709;52.536;5.688;2023-06-01T05:36:09;12.52;;;5.30;;
55784;SDS011;41709;52.536;5.688;2023-06-01T05:38:35;11.57;;;4.70;;
55784;SDS011;41709;52.536;5.688;2023-06-01T05:41:01;10.57;;;4.25;;
55784;SDS011;41709;52.536;5.688;2023-06-01T05:43:27;11.07;;;4.30;;
55784;SDS011;41709;52.536;5.688;2023-06-01T05:45:52;11.07;;;4.18;;
55784;SDS011;41709;52.536;5.688;2023-06-01T05:48:18;13.68;;;4.78;;
55784;SDS011;41709;52.536;5.688;2023-06-01T05:50:44;10.88;;;4.85;;
55784;SDS011;41709;52.536;5.688;2023-06-01T05:53:09;8.40;;;4.13;;
55784;SDS011;41709;52.536;5.688;2023-06-01T05:55:35;9.23;;;4.13;;
55784;SDS011;41709;52.536;5.688;2023-06-01T05:58:01;10.65;;;4.32;;
55784;SDS011;41709;52.536;5.688;2023-06-01T06:00:26;9.77;;;4.10;;
55784;SDS011;41709;52.536;5.688;2023-06-01T06:02:52;6.35;;;3.97;;
55784;SDS011;41709;52.536;5.688;2023-06-01T06:05:18;6.90;;;3.50;;
55784;SDS011;41709;52.536;5.688;2023-06-01T06:07:43;10.73;;;3.50;;
55784;SDS011;41709;52.536;5.688;2023-06-01T06:10:09;6.50;;;3.60;;
55784;SDS011;41709;52.536;5.688;2023-06-01T06:12:36;6.05;;;3.45;;
55784;SDS011;41709;52.536;5.688;2023-06-01T06:15:02;7.63;;;3.45;;
55784;SDS011;41709;52.536;5.688;2023-06-01T06:17:29;8.13;;;2.97;;
55784;SDS011;41709;52.536;5.688;2023-06-01T06:19:54;10.60;;;4.20;;
55784;SDS011;41709;52.536;5.688;2023-06-01T06:22:20;7.28;;;3.90;;
55784;SDS011;41709;52.536;5.688;2023-06-01T06:24:45;10.48;;;3.67;;
55784;SDS011;41709;52.536;5.688;2023-06-01T06:27:12;6.47;;;3.40;;
55784;SDS011;41709;52.536;5.688;2023-06-01T06:29:37;9.70;;;3.53;;
55784;SDS011;41709;52.536;5.688;2023-06-01T06:32:03;7.43;;;3.45;;
55784;SDS011;41709;52.536;5.688;2023-06-01T06:34:29;10.90;;;4.07;;
55784;SDS011;41709;52.536;5.688;2023-06-01T06:37:00;6.28;;;3.42;;
55784;SDS011;41709;52.536;5.688;2023-06-01T06:39:36;8.60;;;3.60;;
55784;SDS011;41709;52.536;5.688;2023-06-01T06:42:02;11.25;;;3.45;;
55784;SDS011;41709;52.536;5.688;2023-06-01T06:44:28;8.13;;;3.92;;
55784;SDS011;41709;52.536;5.688;2023-06-01T06:46:54;7.88;;;3.10;;
55784;SDS011;41709;52.536;5.688;2023-06-01T06:49:20;8.57;;;3.33;;
55784;SDS011;41709;52.536;5.688;2023-06-01T06:51:45;7.40;;;3.30;;
55784;SDS011;41709;52.536;5.688;2023-06-01T06:54:11;10.82;;;3.80;;
55784;SDS011;41709;52.536;5.688;2023-06-01T06:56:37;8.95;;;3.17;;
55784;SDS011;41709;52.536;5.688;2023-06-01T06:59:02;9.07;;;3.25;;
55784;SDS011;41709;52.536;5.688;2023-06-01T07:01:28;6.60;;;3.17;;
55784;SDS011;41709;52.536;5.688;2023-06-01T07:03:54;8.68;;;3.65;;
55784;SDS011;41709;52.536;5.688;2023-06-01T07:06:20;8.95;;;3.25;;
55784;SDS011;41709;52.536;5.688;2023-06-01T07:08:47;6.88;;;2.92;;
55784;SDS011;41709;52.536;5.688;2023-06-01T07:11:13;7.97;;;2.83;;
55784;SDS011;41709;52.536;5.688;2023-06-01T07:13:39;8.95;;;2.78;;
55784;SDS011;41709;52.536;5.688;2023-06-01T07:16:04;5.18;;;3.03;;
55784;SDS011;41709;52.536;5.688;2023-06-01T07:18:30;8.50;;;3.88;;
55784;SDS011;41709;52.536;5.688;2023-06-01T07:20:57;6.10;;;3.25;;
55784;SDS011;41709;52.536;5.688;2023-06-01T07:23:22;8.60;;;3.20;;
55784;SDS011;41709;52.536;5.688;2023-06-01T07:25:48;9.45;;;3.10;;
55784;SDS011;41709;52.536;5.688;2023-06-01T07:28:14;6.60;;;3.30;;
55784;SDS011;41709;52.536;5.688;2023-06-01T07:30:40;7.25;;;3.08;;
55784;SDS011;41709;52.536;5.688;2023-06-01T07:33:06;8.25;;;3.13;;
55784;SDS011;41709;52.536;5.688;2023-06-01T07:35:32;6.72;;;3.17;;
55784;SDS011;41709;52.536;5.688;2023-06-01T07:37:58;9.27;;;3.28;;
55784;SDS011;41709;52.536;5.688;2023-06-01T07:40:24;5.63;;;2.90;;
55784;SDS011;41709;52.536;5.688;2023-06-01T07:42:50;9.85;;;2.92;;
55784;SDS011;41709;52.536;5.688;2023-06-01T07:45:16;7.20;;;2.85;;
55784;SDS011;41709;52.536;5.688;2023-06-01T07:47:42;6.00;;;2.85;;
55784;SDS011;41709;52.536;5.688;2023-06-01T07:50:07;9.00;;;3.42;;
55784;SDS011;41709;52.536;5.688;2023-06-01T07:52:33;9.18;;;3.88;;
55784;SDS011;41709;52.536;5.688;2023-06-01T07:54:59;7.32;;;3.05;;
55784;SDS011;41709;52.536;5.688;2023-06-01T07:57:24;5.88;;;3.13;;
55784;SDS011;41709;52.536;5.688;2023-06-01T07:59:50;6.95;;;3.15;;
55784;SDS011;41709;52.536;5.688;2023-06-01T08:02:16;7.57;;;3.67;;
55784;SDS011;41709;52.536;5.688;2023-06-01T08:04:41;9.70;;;3.53;;
55784;SDS011;41709;52.536;5.688;2023-06-01T08:07:09;7.35;;;3.28;;
55784;SDS011;41709;52.536;5.688;2023-06-01T08:09:37;5.90;;;3.05;;
55784;SDS011;41709;52.536;5.688;2023-06-01T08:12:03;8.82;;;3.10;;
55784;SDS011;41709;52.536;5.688;2023-06-01T08:14:29;9.57;;;3.80;;
55784;SDS011;41709;52.536;5.688;2023-06-01T08:16:58;9.30;;;3.35;;
55784;SDS011;41709;52.536;5.688;2023-06-01T08:19:23;10.43;;;4.03;;
55784;SDS011;41709;52.536;5.688;2023-06-01T08:21:49;7.82;;;3.38;;
55784;SDS011;41709;52.536;5.688;2023-06-01T08:24:15;7.55;;;3.40;;
55784;SDS011;41709;52.536;5.688;2023-06-01T08:26:42;9.90;;;4.10;;
55784;SDS011;41709;52.536;5.688;2023-06-01T08:29:07;9.18;;;3.85;;
55784;SDS011;41709;52.536;5.688;2023-06-01T08:31:33;9.82;;;3.75;;
55784;SDS011;41709;52.536;5.688;2023-06-01T08:33:59;6.07;;;3.97;;
55784;SDS011;41709;52.536;5.688;2023-06-01T08:36:24;12.60;;;3.67;;
55784;SDS011;41709;52.536;5.688;2023-06-01T08:38:53;5.90;;;3.53;;
55784;SDS011;41709;52.536;5.688;2023-06-01T08:44:05;10.30;;;4.97;;
55784;SDS011;41709;52.536;5.688;2023-06-01T08:46:33;9.68;;;4.40;;
55784;SDS011;41709;52.536;5.688;2023-06-01T08:49:02;6.80;;;3.92;;
55784;SDS011;41709;52.536;5.688;2023-06-01T08:51:29;13.68;;;4.50;;
55784;SDS011;41709;52.536;5.688;2023-06-01T08:56:26;11.27;;;3.47;;
55784;SDS011;41709;52.536;5.688;2023-06-01T08:58:52;6.30;;;3.40;;
55784;SDS011;41709;52.536;5.688;2023-06-01T09:01:19;9.27;;;4.35;;
55784;SDS011;41709;52.536;5.688;2023-06-01T09:03:46;8.75;;;3.70;;
55784;SDS011;41709;52.536;5.688;2023-06-01T09:06:13;9.48;;;3.65;;
55784;SDS011;41709;52.536;5.688;2023-06-01T09:08:39;11.13;;;3.80;;
55784;SDS011;41709;52.536;5.688;2023-06-01T09:11:04;7.53;;;3.35;;
55784;SDS011;41709;52.536;5.688;2023-06-01T09:13:31;8.55;;;3.42;;
55784;SDS011;41709;52.536;5.688;2023-06-01T09:16:00;6.88;;;3.10;;
55784;SDS011;41709;52.536;5.688;2023-06-01T09:18:26;8.18;;;3.10;;
55784;SDS011;41709;52.536;5.688;2023-06-01T09:20:52;10.30;;;3.83;;
55784;SDS011;41709;52.536;5.688;2023-06-01T09:23:28;7.15;;;2.72;;
55784;SDS011;41709;52.536;5.688;2023-06-01T09:26:07;7.97;;;3.30;;
55784;SDS011;41709;52.536;5.688;2023-06-01T09:34:09;9.27;;;2.78;;
55784;SDS011;41709;52.536;5.688;2023-06-01T09:36:45;8.23;;;2.65;;
55784;SDS011;41709;52.536;5.688;2023-06-01T09:39:12;7.20;;;3.17;;
55784;SDS011;41709;52.536;5.688;2023-06-01T09:41:55;5.00;;;2.65;;
55784;SDS011;41709;52.536;5.688;2023-06-01T09:44:22;6.32;;;2.90;;
55784;SDS011;41709;52.536;5.688;2023-06-01T09:46:59;6.97;;;3.15;;
55784;SDS011;41709;52.536;5.688;2023-06-01T09:49:27;7.40;;;2.40;;
55784;SDS011;41709;52.536;5.688;2023-06-01T09:54:30;10.07;;;2.78;;
55784;SDS011;41709;52.536;5.688;2023-06-01T09:57:25;10.85;;;2.67;;
55784;SDS011;41709;52.536;5.688;2023-06-01T09:59:53;5.97;;;2.15;;
55784;SDS011;41709;52.536;5.688;2023-06-01T10:02:20;6.35;;;2.75;;
55784;SDS011;41709;52.536;5.688;2023-06-01T10:04:48;4.28;;;2.40;;
55784;SDS011;41709;52.536;5.688;2023-06-01T10:07:14;5.88;;;2.08;;
55784;SDS011;41709;52.536;5.688;2023-06-01T10:09:43;5.47;;;2.58;;
55784;SDS011;41709;52.536;5.688;2023-06-01T10:12:10;6.80;;;2.80;;
55784;SDS011;41709;52.536;5.688;2023-06-01T10:14:37;6.53;;;2.50;;
55784;SDS011;41709;52.536;5.688;2023-06-01T10:17:04;3.33;;;2.25;;
55784;SDS011;41709;52.536;5.688;2023-06-01T10:19:30;4.60;;;2.60;;
55784;SDS011;41709;52.536;5.688;2023-06-01T10:21:59;5.28;;;2.92;;
55784;SDS011;41709;52.536;5.688;2023-06-01T10:24:25;6.40;;;2.67;;
55784;SDS011;41709;52.536;5.688;2023-06-01T10:29:28;6.65;;;2.30;;
55784;SDS011;41709;52.536;5.688;2023-06-01T10:31:55;4.68;;;2.22;;
55784;SDS011;41709;52.536;5.688;2023-06-01T10:39:30;4.63;;;1.83;;
55784;SDS011;41709;52.536;5.688;2023-06-01T10:41:57;4.60;;;2.33;;
55784;SDS011;41709;52.536;5.688;2023-06-01T10:52:32;7.40;;;2.30;;
55784;SDS011;41709;52.536;5.688;2023-06-01T10:57:31;7.00;;;2.72;;
55784;SDS011;41709;52.536;5.688;2023-06-01T11:00:07;8.32;;;3.30;;
55784;SDS011;41709;52.536;5.688;2023-06-01T11:13:17;4.28;;;2.50;;
55784;SDS011;41709;52.536;5.688;2023-06-01T11:21:21;6.53;;;2.80;;
55784;SDS011;41709;52.536;5.688;2023-06-01T11:23:48;6.75;;;2.70;;
55784;SDS011;41709;52.536;5.688;2023-06-01T11:26:16;7.80;;;2.72;;
55784;SDS011;41709;52.536;5.688;2023-06-01T11:28:45;5.75;;;2.83;;
55784;SDS011;41709;52.536;5.688;2023-06-01T11:31:13;7.50;;;3.22;;
55784;SDS011;41709;52.536;5.688;2023-06-01T11:33:48;13.27;;;5.10;;
55784;SDS011;41709;52.536;5.688;2023-06-01T11:36:22;7.38;;;3.28;;
55784;SDS011;41709;52.536;5.688;2023-06-01T11:38:51;7.38;;;3.33;;
55784;SDS011;41709;52.536;5.688;2023-06-01T11:41:21;7.53;;;3.13;;
55784;SDS011;41709;52.536;5.688;2023-06-01T11:43:54;11.18;;;3.10;;
55784;SDS011;41709;52.536;5.688;2023-06-01T11:46:21;10.45;;;3.33;;
55784;SDS011;41709;52.536;5.688;2023-06-01T11:49:00;12.68;;;3.50;;
55784;SDS011;41709;52.536;5.688;2023-06-01T11:51:30;11.55;;;3.72;;
55784;SDS011;41709;52.536;5.688;2023-06-01T11:54:00;8.40;;;3.55;;
55784;SDS011;41709;52.536;5.688;2023-06-01T11:56:30;7.70;;;2.83;;
55784;SDS011;41709;52.536;5.688;2023-06-01T11:59:00;8.30;;;2.80;;
55784;SDS011;41709;52.536;5.688;2023-06-01T12:01:27;6.30;;;2.50;;
55784;SDS011;41709;52.536;5.688;2023-06-01T12:03:53;4.93;;;2.53;;
55784;SDS011;41709;52.536;5.688;2023-06-01T12:08:49;7.10;;;2.17;;
55784;SDS011;41709;52.536;5.688;2023-06-01T12:11:26;7.47;;;2.50;;
55784;SDS011;41709;52.536;5.688;2023-06-01T12:13:53;4.75;;;2.22;;
55784;SDS011;41709;52.536;5.688;2023-06-01T12:16:20;8.80;;;3.42;;
55784;SDS011;41709;52.536;5.688;2023-06-01T12:18:50;5.47;;;2.63;;
55784;SDS011;41709;52.536;5.688;2023-06-01T12:21:16;6.93;;;2.30;;
55784;SDS011;41709;52.536;5.688;2023-06-01T12:23:42;8.90;;;2.58;;
55784;SDS011;41709;52.536;5.688;2023-06-01T12:26:13;10.63;;;3.42;;
55784;SDS011;41709;52.536;5.688;2023-06-01T12:28:49;7.78;;;3.88;;
55784;SDS011;41709;52.536;5.688;2023-06-01T12:31:18;8.68;;;3.58;;
55784;SDS011;41709;52.536;5.688;2023-06-01T12:33:44;9.48;;;2.70;;
55784;SDS011;41709;52.536;5.688;2023-06-01T12:36:11;9.15;;;2.80;;
55784;SDS011;41709;52.536;5.688;2023-06-01T12:38:53;10.15;;;4.05;;
55784;SDS011;41709;52.536;5.688;2023-06-01T12:41:19;6.85;;;2.75;;
55784;SDS011;41709;52.536;5.688;2023-06-01T12:43:47;8.05;;;2.63;;
55784;SDS011;41709;52.536;5.688;2023-06-01T12:48:49;8.10;;;3.00;;
55784;SDS011;41709;52.536;5.688;2023-06-01T12:51:16;6.72;;;3.00;;
55784;SDS011;41709;52.536;5.688;2023-06-01T12:53:42;8.63;;;2.70;;
55784;SDS011;41709;52.536;5.688;2023-06-01T12:56:08;11.18;;;3.20;;
55784;SDS011;41709;52.536;5.688;2023-06-01T12:58:34;7.38;;;2.95;;
55784;SDS011;41709;52.536;5.688;2023-06-01T13:01:00;5.53;;;2.60;;
55784;SDS011;41709;52.536;5.688;2023-06-01T13:03:26;4.03;;;2.13;;
55784;SDS011;41709;52.536;5.688;2023-06-01T13:05:52;6.60;;;2.53;;
55784;SDS011;41709;52.536;5.688;2023-06-01T13:08:18;6.65;;;2.63;;
55784;SDS011;41709;52.536;5.688;2023-06-01T13:10:44;3.95;;;2.08;;
55784;SDS011;41709;52.536;5.688;2023-06-01T13:13:10;4.07;;;2.03;;
55784;SDS011;41709;52.536;5.688;2023-06-01T13:15:44;8.65;;;2.33;;
55784;SDS011;41709;52.536;5.688;2023-06-01T13:18:13;5.90;;;2.05;;
55784;SDS011;41709;52.536;5.688;2023-06-01T13:20:38;4.22;;;2.10;;
55784;SDS011;41709;52.536;5.688;2023-06-01T13:23:05;5.47;;;2.10;;
55784;SDS011;41709;52.536;5.688;2023-06-01T13:25:31;4.70;;;1.92;;
55784;SDS011;41709;52.536;5.688;2023-06-01T13:27:58;4.53;;;2.13;;
55784;SDS011;41709;52.536;5.688;2023-06-01T13:30:25;1.90;;;1.48;;
55784;SDS011;41709;52.536;5.688;2023-06-01T13:32:52;3.55;;;2.53;;
55784;SDS011;41709;52.536;5.688;2023-06-01T13:35:18;5.00;;;1.90;;
55784;SDS011;41709;52.536;5.688;2023-06-01T13:37:43;6.40;;;2.38;;
55784;SDS011;41709;52.536;5.688;2023-06-01T13:40:09;7.38;;;2.55;;
55784;SDS011;41709;52.536;5.688;2023-06-01T13:42:35;4.15;;;2.17;;
55784;SDS011;41709;52.536;5.688;2023-06-01T13:45:01;5.57;;;2.17;;
55784;SDS011;41709;52.536;5.688;2023-06-01T13:47:26;4.80;;;2.42;;
55784;SDS011;41709;52.536;5.688;2023-06-01T13:49:52;7.72;;;2.28;;
55784;SDS011;41709;52.536;5.688;2023-06-01T13:52:18;4.45;;;2.10;;
55784;SDS011;41709;52.536;5.688;2023-06-01T13:54:43;4.70;;;2.42;;
55784;SDS011;41709;52.536;5.688;2023-06-01T13:57:09;8.32;;;2.65;;
55784;SDS011;41709;52.536;5.688;2023-06-01T13:59:35;4.90;;;2.20;;
55784;SDS011;41709;52.536;5.688;2023-06-01T14:02:02;3.17;;;2.05;;
55784;SDS011;41709;52.536;5.688;2023-06-01T14:04:29;3.55;;;2.10;;
55784;SDS011;41709;52.536;5.688;2023-06-01T14:06:55;3.85;;;2.17;;
55784;SDS011;41709;52.536;5.688;2023-06-01T14:09:21;5.75;;;2.00;;
55784;SDS011;41709;52.536;5.688;2023-06-01T14:11:47;4.07;;;1.95;;
55784;SDS011;41709;52.536;5.688;2023-06-01T14:14:13;5.97;;;2.15;;
55784;SDS011;41709;52.536;5.688;2023-06-01T14:16:38;2.90;;;1.50;;
55784;SDS011;41709;52.536;5.688;2023-06-01T14:19:04;4.18;;;1.73;;
55784;SDS011;41709;52.536;5.688;2023-06-01T14:21:30;2.75;;;1.40;;
55784;SDS011;41709;52.536;5.688;2023-06-01T14:23:57;3.95;;;1.35;;
55784;SDS011;41709;52.536;5.688;2023-06-01T14:26:23;2.25;;;1.20;;
55784;SDS011;41709;52.536;5.688;2023-06-01T14:28:48;2.15;;;1.33;;
55784;SDS011;41709;52.536;5.688;2023-06-01T14:31:14;4.63;;;1.55;;
55784;SDS011;41709;52.536;5.688;2023-06-01T14:33:40;7.47;;;1.98;;
55784;SDS011;41709;52.536;5.688;2023-06-01T14:36:05;6.28;;;1.63;;
55784;SDS011;41709;52.536;5.688;2023-06-01T14:38:31;6.30;;;2.13;;
55784;SDS011;41709;52.536;5.688;2023-06-01T14:40:56;3.65;;;1.75;;
55784;SDS011;41709;52.536;5.688;2023-06-01T14:43:22;6.22;;;1.60;;
55784;SDS011;41709;52.536;5.688;2023-06-01T14:45:47;3.45;;;1.60;;
55784;SDS011;41709;52.536;5.688;2023-06-01T14:48:13;4.90;;;1.77;;
55784;SDS011;41709;52.536;5.688;2023-06-01T14:50:39;3.28;;;1.45;;
55784;SDS011;41709;52.536;5.688;2023-06-01T14:53:04;5.72;;;1.77;;
55784;SDS011;41709;52.536;5.688;2023-06-01T14:55:30;5.78;;;1.45;;
55784;SDS011;41709;52.536;5.688;2023-06-01T14:57:55;2.20;;;1.25;;
55784;SDS011;41709;52.536;5.688;2023-06-01T15:00:21;5.50;;;1.77;;
55784;SDS011;41709;52.536;5.688;2023-06-01T15:02:47;5.45;;;2.38;;
55784;SDS011;41709;52.536;5.688;2023-06-01T15:05:13;5.65;;;1.70;;
55784;SDS011;41709;52.536;5.688;2023-06-01T15:07:38;5.50;;;1.73;;
55784;SDS011;41709;52.536;5.688;2023-06-01T15:10:04;6.28;;;1.90;;
55784;SDS011;41709;52.536;5.688;2023-06-01T15:12:30;5.15;;;1.63;;
55784;SDS011;41709;52.536;5.688;2023-06-01T15:14:56;9.82;;;2.35;;
55784;SDS011;41709;52.536;5.688;2023-06-01T15:17:22;6.25;;;1.90;;
55784;SDS011;41709;52.536;5.688;2023-06-01T15:19:47;8.27;;;2.90;;
55784;SDS011;41709;52.536;5.688;2023-06-01T15:22:13;5.97;;;1.65;;
55784;SDS011;41709;52.536;5.688;2023-06-01T15:24:39;8.60;;;2.60;;
55784;SDS011;41709;52.536;5.688;2023-06-01T15:27:08;11.20;;;2.40;;
55784;SDS011;41709;52.536;5.688;2023-06-01T15:29:34;8.48;;;2.03;;
55784;SDS011;41709;52.536;5.688;2023-06-01T15:32:00;8.23;;;2.15;;
55784;SDS011;41709;52.536;5.688;2023-06-01T15:34:26;9.75;;;2.22;;
55784;SDS011;41709;52.536;5.688;2023-06-01T15:36:51;7.32;;;2.72;;
55784;SDS011;41709;52.536;5.688;2023-06-01T15:39:17;7.72;;;2.13;;
55784;SDS011;41709;52.536;5.688;2023-06-01T15:41:43;6.15;;;2.28;;
55784;SDS011;41709;52.536;5.688;2023-06-01T15:44:08;5.43;;;2.25;;